sensor_id;sensor_type;location;lat;lon;timestamp;P1;durP1;ratioP1;P2;durP2;ratioP2
35891;SDS011;21993;42.672;23.296;2023-05-29T00:01:21;5.67;;;4.73;;
35891;SDS011;21993;42.672;23.296;2023-05-29T00:03:49;5.80;;;5.07;;
35891;SDS011;21993;42.672;23.296;2023-05-29T00:06:14;8.20;;;5.13;;
35891;SDS011;21993;42.672;23.296;2023-05-29T00:08:40;7.53;;;5.30;;
35891;SDS011;21993;42.672;23.296;2023-05-29T00:11:05;7.03;;;5.03;;
35891;SDS011;21993;42.672;23.296;2023-05-29T00:13:31;6.80;;;4.77;;
35891;SDS011;21993;42.672;23.296;2023-05-29T00:15:56;6.07;;;4.83;;
35891;SDS011;21993;42.672;23.296;2023-05-29T00:18:21;5.60;;;5.00;;
35891;SDS011;21993;42.672;23.296;2023-05-29T00:20:47;8.60;;;5.33;;
35891;SDS011;21993;42.672;23.296;2023-05-29T00:23:13;5.63;;;5.03;;
35891;SDS011;21993;42.672;23.296;2023-05-29T00:25:38;6.63;;;4.83;;
35891;SDS011;21993;42.672;23.296;2023-05-29T00:28:05;7.13;;;4.80;;
35891;SDS011;21993;42.672;23.296;2023-05-29T00:30:32;8.40;;;5.47;;
35891;SDS011;21993;42.672;23.296;2023-05-29T00:32:57;13.73;;;5.90;;
35891;SDS011;21993;42.672;23.296;2023-05-29T00:35:22;8.13;;;5.73;;
35891;SDS011;21993;42.672;23.296;2023-05-29T00:37:48;8.53;;;5.40;;
35891;SDS011;21993;42.672;23.296;2023-05-29T00:40:13;8.93;;;5.57;;
35891;SDS011;21993;42.672;23.296;2023-05-29T00:42:39;5.50;;;5.00;;
35891;SDS011;21993;42.672;23.296;2023-05-29T00:45:04;5.83;;;4.73;;
35891;SDS011;21993;42.672;23.296;2023-05-29T00:47:31;9.80;;;5.23;;
35891;SDS011;21993;42.672;23.296;2023-05-29T00:49:56;10.27;;;5.90;;
35891;SDS011;21993;42.672;23.296;2023-05-29T00:52:23;8.57;;;5.83;;
35891;SDS011;21993;42.672;23.296;2023-05-29T00:54:50;6.33;;;5.40;;
35891;SDS011;21993;42.672;23.296;2023-05-29T00:57:16;9.50;;;5.70;;
35891;SDS011;21993;42.672;23.296;2023-05-29T00:59:42;6.70;;;4.83;;
35891;SDS011;21993;42.672;23.296;2023-05-29T01:02:10;7.90;;;5.00;;
35891;SDS011;21993;42.672;23.296;2023-05-29T01:04:36;8.90;;;4.90;;
35891;SDS011;21993;42.672;23.296;2023-05-29T01:07:03;8.37;;;5.37;;
35891;SDS011;21993;42.672;23.296;2023-05-29T01:09:29;6.33;;;5.40;;
35891;SDS011;21993;42.672;23.296;2023-05-29T01:25:23;7.80;;;5.10;;
35891;SDS011;21993;42.672;23.296;2023-05-29T01:28:12;6.27;;;5.07;;
35891;SDS011;21993;42.672;23.296;2023-05-29T01:30:40;8.10;;;5.70;;
35891;SDS011;21993;42.672;23.296;2023-05-29T01:33:05;8.80;;;5.90;;
35891;SDS011;21993;42.672;23.296;2023-05-29T01:35:31;7.70;;;5.73;;
35891;SDS011;21993;42.672;23.296;2023-05-29T01:37:57;7.57;;;5.20;;
35891;SDS011;21993;42.672;23.296;2023-05-29T01:40:23;5.77;;;4.90;;
35891;SDS011;21993;42.672;23.296;2023-05-29T01:42:48;7.93;;;5.43;;
35891;SDS011;21993;42.672;23.296;2023-05-29T01:45:14;7.33;;;5.57;;
35891;SDS011;21993;42.672;23.296;2023-05-29T01:47:42;7.03;;;5.30;;
35891;SDS011;21993;42.672;23.296;2023-05-29T01:50:07;6.47;;;5.30;;
35891;SDS011;21993;42.672;23.296;2023-05-29T01:52:34;8.20;;;5.67;;
35891;SDS011;21993;42.672;23.296;2023-05-29T01:55:00;7.13;;;5.50;;
35891;SDS011;21993;42.672;23.296;2023-05-29T01:57:25;6.40;;;5.70;;
35891;SDS011;21993;42.672;23.296;2023-05-29T01:59:51;10.47;;;6.27;;
35891;SDS011;21993;42.672;23.296;2023-05-29T02:02:17;9.30;;;5.87;;
35891;SDS011;21993;42.672;23.296;2023-05-29T02:04:42;7.63;;;6.03;;
35891;SDS011;21993;42.672;23.296;2023-05-29T02:07:08;9.47;;;5.63;;
35891;SDS011;21993;42.672;23.296;2023-05-29T02:09:34;9.73;;;6.00;;
35891;SDS011;21993;42.672;23.296;2023-05-29T02:12:00;6.93;;;4.97;;
35891;SDS011;21993;42.672;23.296;2023-05-29T02:14:26;7.83;;;5.80;;
35891;SDS011;21993;42.672;23.296;2023-05-29T02:16:52;9.33;;;5.57;;
35891;SDS011;21993;42.672;23.296;2023-05-29T02:19:20;9.03;;;6.10;;
35891;SDS011;21993;42.672;23.296;2023-05-29T02:21:46;8.93;;;5.90;;
35891;SDS011;21993;42.672;23.296;2023-05-29T02:24:13;6.53;;;5.30;;
35891;SDS011;21993;42.672;23.296;2023-05-29T02:26:38;6.50;;;4.97;;
35891;SDS011;21993;42.672;23.296;2023-05-29T02:29:04;6.77;;;5.90;;
35891;SDS011;21993;42.672;23.296;2023-05-29T02:31:32;6.83;;;5.17;;
35891;SDS011;21993;42.672;23.296;2023-05-29T02:33:57;7.40;;;5.30;;
35891;SDS011;21993;42.672;23.296;2023-05-29T02:36:23;7.97;;;5.53;;
35891;SDS011;21993;42.672;23.296;2023-05-29T02:38:48;8.23;;;5.80;;
35891;SDS011;21993;42.672;23.296;2023-05-29T02:41:13;6.53;;;5.17;;
35891;SDS011;21993;42.672;23.296;2023-05-29T02:43:39;8.57;;;6.33;;
35891;SDS011;21993;42.672;23.296;2023-05-29T02:46:04;8.30;;;5.40;;
35891;SDS011;21993;42.672;23.296;2023-05-29T02:48:30;11.07;;;5.77;;
35891;SDS011;21993;42.672;23.296;2023-05-29T02:50:55;8.77;;;6.17;;
35891;SDS011;21993;42.672;23.296;2023-05-29T02:53:21;7.60;;;5.40;;
35891;SDS011;21993;42.672;23.296;2023-05-29T02:55:46;8.20;;;5.73;;
35891;SDS011;21993;42.672;23.296;2023-05-29T02:58:12;8.87;;;5.93;;
35891;SDS011;21993;42.672;23.296;2023-05-29T03:00:37;8.17;;;6.00;;
35891;SDS011;21993;42.672;23.296;2023-05-29T03:03:03;6.50;;;5.80;;
35891;SDS011;21993;42.672;23.296;2023-05-29T03:05:29;6.87;;;5.90;;
35891;SDS011;21993;42.672;23.296;2023-05-29T03:07:55;7.37;;;6.60;;
35891;SDS011;21993;42.672;23.296;2023-05-29T03:10:20;8.87;;;6.03;;
35891;SDS011;21993;42.672;23.296;2023-05-29T03:12:46;15.27;;;8.70;;
35891;SDS011;21993;42.672;23.296;2023-05-29T03:15:12;16.00;;;8.30;;
35891;SDS011;21993;42.672;23.296;2023-05-29T03:17:37;10.20;;;6.80;;
35891;SDS011;21993;42.672;23.296;2023-05-29T03:20:03;10.23;;;6.70;;
35891;SDS011;21993;42.672;23.296;2023-05-29T03:22:33;13.67;;;6.73;;
35891;SDS011;21993;42.672;23.296;2023-05-29T03:25:01;8.50;;;6.90;;
35891;SDS011;21993;42.672;23.296;2023-05-29T03:27:27;11.33;;;6.57;;
35891;SDS011;21993;42.672;23.296;2023-05-29T03:29:54;15.77;;;6.80;;
35891;SDS011;21993;42.672;23.296;2023-05-29T03:32:19;8.07;;;6.37;;
35891;SDS011;21993;42.672;23.296;2023-05-29T03:34:45;11.13;;;6.90;;
35891;SDS011;21993;42.672;23.296;2023-05-29T03:37:11;13.80;;;6.73;;
35891;SDS011;21993;42.672;23.296;2023-05-29T03:39:37;9.43;;;6.60;;
35891;SDS011;21993;42.672;23.296;2023-05-29T03:42:02;9.40;;;7.27;;
35891;SDS011;21993;42.672;23.296;2023-05-29T03:44:28;7.87;;;6.13;;
35891;SDS011;21993;42.672;23.296;2023-05-29T03:46:53;9.93;;;6.60;;
35891;SDS011;21993;42.672;23.296;2023-05-29T03:49:19;8.13;;;7.07;;
35891;SDS011;21993;42.672;23.296;2023-05-29T03:51:44;11.77;;;6.70;;
35891;SDS011;21993;42.672;23.296;2023-05-29T03:54:10;9.13;;;7.00;;
35891;SDS011;21993;42.672;23.296;2023-05-29T03:56:35;9.50;;;6.53;;
35891;SDS011;21993;42.672;23.296;2023-05-29T03:59:01;7.27;;;6.57;;
35891;SDS011;21993;42.672;23.296;2023-05-29T04:01:26;11.27;;;6.53;;
35891;SDS011;21993;42.672;23.296;2023-05-29T04:03:52;10.07;;;5.97;;
35891;SDS011;21993;42.672;23.296;2023-05-29T04:06:17;8.73;;;6.33;;
35891;SDS011;21993;42.672;23.296;2023-05-29T04:08:43;10.77;;;6.43;;
35891;SDS011;21993;42.672;23.296;2023-05-29T04:11:08;11.30;;;6.83;;
35891;SDS011;21993;42.672;23.296;2023-05-29T04:13:33;9.50;;;6.30;;
35891;SDS011;21993;42.672;23.296;2023-05-29T04:15:59;9.43;;;6.00;;
35891;SDS011;21993;42.672;23.296;2023-05-29T04:18:24;11.53;;;7.03;;
35891;SDS011;21993;42.672;23.296;2023-05-29T04:20:50;11.27;;;7.13;;
35891;SDS011;21993;42.672;23.296;2023-05-29T04:23:16;14.27;;;7.97;;
35891;SDS011;21993;42.672;23.296;2023-05-29T04:25:41;10.50;;;7.03;;
35891;SDS011;21993;42.672;23.296;2023-05-29T04:28:09;10.40;;;6.70;;
35891;SDS011;21993;42.672;23.296;2023-05-29T04:30:35;10.60;;;7.80;;
35891;SDS011;21993;42.672;23.296;2023-05-29T04:33:01;10.87;;;6.43;;
35891;SDS011;21993;42.672;23.296;2023-05-29T04:35:27;9.03;;;7.00;;
35891;SDS011;21993;42.672;23.296;2023-05-29T04:37:53;10.80;;;7.13;;
35891;SDS011;21993;42.672;23.296;2023-05-29T04:40:21;10.90;;;7.00;;
35891;SDS011;21993;42.672;23.296;2023-05-29T04:42:46;12.30;;;7.40;;
35891;SDS011;21993;42.672;23.296;2023-05-29T04:45:12;8.77;;;7.50;;
35891;SDS011;21993;42.672;23.296;2023-05-29T04:47:37;9.87;;;7.00;;
35891;SDS011;21993;42.672;23.296;2023-05-29T04:50:12;9.57;;;7.40;;
35891;SDS011;21993;42.672;23.296;2023-05-29T04:52:38;10.70;;;7.60;;
35891;SDS011;21993;42.672;23.296;2023-05-29T04:55:04;9.97;;;7.00;;
35891;SDS011;21993;42.672;23.296;2023-05-29T04:57:30;11.93;;;8.33;;
35891;SDS011;21993;42.672;23.296;2023-05-29T04:59:56;13.60;;;8.00;;
35891;SDS011;21993;42.672;23.296;2023-05-29T05:02:21;17.43;;;8.87;;
35891;SDS011;21993;42.672;23.296;2023-05-29T05:04:47;12.60;;;7.10;;
35891;SDS011;21993;42.672;23.296;2023-05-29T05:07:13;20.53;;;8.47;;
35891;SDS011;21993;42.672;23.296;2023-05-29T05:09:41;12.50;;;7.37;;
35891;SDS011;21993;42.672;23.296;2023-05-29T05:12:06;10.10;;;7.50;;
35891;SDS011;21993;42.672;23.296;2023-05-29T05:14:32;11.47;;;7.40;;
35891;SDS011;21993;42.672;23.296;2023-05-29T05:16:57;12.33;;;7.77;;
35891;SDS011;21993;42.672;23.296;2023-05-29T05:19:23;9.97;;;7.50;;
35891;SDS011;21993;42.672;23.296;2023-05-29T05:21:48;9.90;;;7.23;;
35891;SDS011;21993;42.672;23.296;2023-05-29T05:24:13;10.70;;;7.73;;
35891;SDS011;21993;42.672;23.296;2023-05-29T05:26:39;18.90;;;10.37;;
35891;SDS011;21993;42.672;23.296;2023-05-29T05:29:04;22.70;;;10.07;;
35891;SDS011;21993;42.672;23.296;2023-05-29T05:31:30;20.13;;;11.67;;
35891;SDS011;21993;42.672;23.296;2023-05-29T05:33:55;17.47;;;10.93;;
35891;SDS011;21993;42.672;23.296;2023-05-29T05:36:21;13.43;;;9.57;;
35891;SDS011;21993;42.672;23.296;2023-05-29T05:38:46;18.03;;;10.47;;
35891;SDS011;21993;42.672;23.296;2023-05-29T05:41:11;15.40;;;9.10;;
35891;SDS011;21993;42.672;23.296;2023-05-29T05:43:37;12.13;;;8.53;;
35891;SDS011;21993;42.672;23.296;2023-05-29T05:46:02;12.43;;;7.73;;
35891;SDS011;21993;42.672;23.296;2023-05-29T05:48:27;14.87;;;8.40;;
35891;SDS011;21993;42.672;23.296;2023-05-29T05:50:53;14.17;;;9.13;;
35891;SDS011;21993;42.672;23.296;2023-05-29T05:53:18;17.00;;;10.07;;
35891;SDS011;21993;42.672;23.296;2023-05-29T05:55:44;14.73;;;9.27;;
35891;SDS011;21993;42.672;23.296;2023-05-29T05:58:09;11.40;;;7.53;;
35891;SDS011;21993;42.672;23.296;2023-05-29T06:00:34;10.40;;;7.40;;
35891;SDS011;21993;42.672;23.296;2023-05-29T06:03:00;9.37;;;7.13;;
35891;SDS011;21993;42.672;23.296;2023-05-29T06:05:28;8.60;;;5.97;;
35891;SDS011;21993;42.672;23.296;2023-05-29T06:07:53;9.53;;;7.37;;
35891;SDS011;21993;42.672;23.296;2023-05-29T06:10:19;11.53;;;7.70;;
35891;SDS011;21993;42.672;23.296;2023-05-29T06:12:44;14.37;;;6.93;;
35891;SDS011;21993;42.672;23.296;2023-05-29T06:15:10;12.00;;;6.67;;
35891;SDS011;21993;42.672;23.296;2023-05-29T06:17:35;11.93;;;6.53;;
35891;SDS011;21993;42.672;23.296;2023-05-29T06:20:01;11.73;;;6.13;;
35891;SDS011;21993;42.672;23.296;2023-05-29T06:22:26;8.60;;;5.63;;
35891;SDS011;21993;42.672;23.296;2023-05-29T06:24:52;10.47;;;6.27;;
35891;SDS011;21993;42.672;23.296;2023-05-29T06:27:17;9.17;;;7.00;;
35891;SDS011;21993;42.672;23.296;2023-05-29T06:29:43;14.07;;;7.23;;
35891;SDS011;21993;42.672;23.296;2023-05-29T06:32:09;14.40;;;7.53;;
35891;SDS011;21993;42.672;23.296;2023-05-29T06:34:34;9.93;;;6.73;;
35891;SDS011;21993;42.672;23.296;2023-05-29T06:36:59;12.57;;;6.20;;
35891;SDS011;21993;42.672;23.296;2023-05-29T06:39:25;9.87;;;6.30;;
35891;SDS011;21993;42.672;23.296;2023-05-29T06:41:50;12.23;;;5.73;;
35891;SDS011;21993;42.672;23.296;2023-05-29T06:44:16;9.90;;;6.37;;
35891;SDS011;21993;42.672;23.296;2023-05-29T06:46:41;11.20;;;7.73;;
35891;SDS011;21993;42.672;23.296;2023-05-29T06:49:06;8.27;;;5.67;;
35891;SDS011;21993;42.672;23.296;2023-05-29T06:51:33;8.97;;;4.80;;
35891;SDS011;21993;42.672;23.296;2023-05-29T06:53:58;8.23;;;4.87;;
35891;SDS011;21993;42.672;23.296;2023-05-29T06:56:24;4.90;;;3.87;;
35891;SDS011;21993;42.672;23.296;2023-05-29T06:58:50;5.13;;;3.90;;
35891;SDS011;21993;42.672;23.296;2023-05-29T07:01:16;4.17;;;3.70;;
35891;SDS011;21993;42.672;23.296;2023-05-29T07:03:42;8.33;;;3.57;;
35891;SDS011;21993;42.672;23.296;2023-05-29T07:06:07;5.77;;;3.50;;
35891;SDS011;21993;42.672;23.296;2023-05-29T07:08:33;6.03;;;4.63;;
35891;SDS011;21993;42.672;23.296;2023-05-29T07:10:58;6.23;;;3.53;;
35891;SDS011;21993;42.672;23.296;2023-05-29T07:13:24;4.00;;;3.60;;
35891;SDS011;21993;42.672;23.296;2023-05-29T07:15:51;10.97;;;6.50;;
35891;SDS011;21993;42.672;23.296;2023-05-29T07:18:16;4.83;;;3.90;;
35891;SDS011;21993;42.672;23.296;2023-05-29T07:20:41;6.90;;;4.00;;
35891;SDS011;21993;42.672;23.296;2023-05-29T07:23:07;5.37;;;3.33;;
35891;SDS011;21993;42.672;23.296;2023-05-29T07:25:32;4.87;;;3.57;;
35891;SDS011;21993;42.672;23.296;2023-05-29T07:27:58;6.53;;;3.67;;
35891;SDS011;21993;42.672;23.296;2023-05-29T07:30:23;4.07;;;3.10;;
35891;SDS011;21993;42.672;23.296;2023-05-29T07:32:48;4.97;;;3.70;;
35891;SDS011;21993;42.672;23.296;2023-05-29T07:35:14;5.93;;;2.97;;
35891;SDS011;21993;42.672;23.296;2023-05-29T07:37:40;4.27;;;3.07;;
35891;SDS011;21993;42.672;23.296;2023-05-29T07:40:06;5.47;;;3.70;;
35891;SDS011;21993;42.672;23.296;2023-05-29T07:42:32;4.40;;;3.60;;
35891;SDS011;21993;42.672;23.296;2023-05-29T07:45:00;3.80;;;3.07;;
35891;SDS011;21993;42.672;23.296;2023-05-29T07:47:26;4.67;;;3.67;;
35891;SDS011;21993;42.672;23.296;2023-05-29T07:49:51;4.23;;;3.20;;
35891;SDS011;21993;42.672;23.296;2023-05-29T07:52:17;3.67;;;2.87;;
35891;SDS011;21993;42.672;23.296;2023-05-29T07:54:43;4.97;;;3.83;;
35891;SDS011;21993;42.672;23.296;2023-05-29T07:57:08;5.67;;;3.10;;
35891;SDS011;21993;42.672;23.296;2023-05-29T07:59:37;4.53;;;3.50;;
35891;SDS011;21993;42.672;23.296;2023-05-29T08:02:04;6.83;;;3.33;;
35891;SDS011;21993;42.672;23.296;2023-05-29T08:04:30;3.93;;;3.10;;
35891;SDS011;21993;42.672;23.296;2023-05-29T08:06:55;4.33;;;2.80;;
35891;SDS011;21993;42.672;23.296;2023-05-29T08:09:21;3.20;;;2.90;;
35891;SDS011;21993;42.672;23.296;2023-05-29T08:11:46;5.87;;;2.97;;
35891;SDS011;21993;42.672;23.296;2023-05-29T08:14:13;4.80;;;3.40;;
35891;SDS011;21993;42.672;23.296;2023-05-29T08:16:39;3.53;;;3.10;;
35891;SDS011;21993;42.672;23.296;2023-05-29T08:19:05;3.20;;;2.90;;
35891;SDS011;21993;42.672;23.296;2023-05-29T08:21:31;4.77;;;2.90;;
35891;SDS011;21993;42.672;23.296;2023-05-29T08:23:59;6.27;;;4.97;;
35891;SDS011;21993;42.672;23.296;2023-05-29T08:26:26;4.27;;;3.13;;
35891;SDS011;21993;42.672;23.296;2023-05-29T08:28:51;7.27;;;3.67;;
35891;SDS011;21993;42.672;23.296;2023-05-29T08:31:16;4.33;;;3.30;;
35891;SDS011;21993;42.672;23.296;2023-05-29T08:33:42;6.33;;;3.90;;
35891;SDS011;21993;42.672;23.296;2023-05-29T08:36:07;5.13;;;3.63;;
35891;SDS011;21993;42.672;23.296;2023-05-29T08:38:33;4.57;;;3.57;;
35891;SDS011;21993;42.672;23.296;2023-05-29T08:41:00;5.30;;;3.23;;
35891;SDS011;21993;42.672;23.296;2023-05-29T08:43:26;3.77;;;3.23;;
35891;SDS011;21993;42.672;23.296;2023-05-29T08:45:56;6.30;;;3.10;;
35891;SDS011;21993;42.672;23.296;2023-05-29T08:48:25;3.87;;;3.13;;
35891;SDS011;21993;42.672;23.296;2023-05-29T08:50:53;3.20;;;2.90;;
35891;SDS011;21993;42.672;23.296;2023-05-29T08:53:20;4.67;;;3.80;;
35891;SDS011;21993;42.672;23.296;2023-05-29T08:55:49;6.23;;;3.13;;
35891;SDS011;21993;42.672;23.296;2023-05-29T08:58:16;7.27;;;3.33;;
35891;SDS011;21993;42.672;23.296;2023-05-29T09:00:44;3.23;;;2.90;;
35891;SDS011;21993;42.672;23.296;2023-05-29T09:03:11;5.63;;;3.83;;
35891;SDS011;21993;42.672;23.296;2023-05-29T09:05:36;5.47;;;3.60;;
35891;SDS011;21993;42.672;23.296;2023-05-29T09:08:05;3.93;;;3.53;;
35891;SDS011;21993;42.672;23.296;2023-05-29T09:10:32;3.70;;;3.40;;
35891;SDS011;21993;42.672;23.296;2023-05-29T09:12:58;4.03;;;3.00;;
35891;SDS011;21993;42.672;23.296;2023-05-29T09:15:24;4.03;;;3.63;;
35891;SDS011;21993;42.672;23.296;2023-05-29T09:17:50;6.77;;;3.87;;
35891;SDS011;21993;42.672;23.296;2023-05-29T09:20:17;4.47;;;3.47;;
35891;SDS011;21993;42.672;23.296;2023-05-29T09:25:22;4.23;;;3.13;;
35891;SDS011;21993;42.672;23.296;2023-05-29T09:30:33;3.20;;;2.90;;
35891;SDS011;21993;42.672;23.296;2023-05-29T09:33:00;3.47;;;3.00;;
35891;SDS011;21993;42.672;23.296;2023-05-29T09:35:31;3.70;;;3.23;;
35891;SDS011;21993;42.672;23.296;2023-05-29T09:38:05;6.60;;;3.67;;
35891;SDS011;21993;42.672;23.296;2023-05-29T09:40:32;3.77;;;3.07;;
35891;SDS011;21993;42.672;23.296;2023-05-29T09:43:05;3.60;;;3.30;;
35891;SDS011;21993;42.672;23.296;2023-05-29T09:45:37;5.37;;;3.50;;
35891;SDS011;21993;42.672;23.296;2023-05-29T09:48:05;4.40;;;3.33;;
35891;SDS011;21993;42.672;23.296;2023-05-29T09:50:32;4.70;;;3.40;;
35891;SDS011;21993;42.672;23.296;2023-05-29T09:52:58;5.90;;;3.90;;
35891;SDS011;21993;42.672;23.296;2023-05-29T09:55:26;5.70;;;3.73;;
35891;SDS011;21993;42.672;23.296;2023-05-29T09:57:53;4.03;;;3.30;;
35891;SDS011;21993;42.672;23.296;2023-05-29T10:00:19;4.37;;;3.40;;
35891;SDS011;21993;42.672;23.296;2023-05-29T10:02:47;4.80;;;3.70;;
35891;SDS011;21993;42.672;23.296;2023-05-29T10:05:14;6.40;;;3.80;;
35891;SDS011;21993;42.672;23.296;2023-05-29T10:07:43;6.83;;;4.10;;
35891;SDS011;21993;42.672;23.296;2023-05-29T10:10:12;4.10;;;3.10;;
35891;SDS011;21993;42.672;23.296;2023-05-29T10:12:39;5.50;;;3.50;;
35891;SDS011;21993;42.672;23.296;2023-05-29T10:15:13;4.87;;;3.53;;
35891;SDS011;21993;42.672;23.296;2023-05-29T10:17:44;4.97;;;3.73;;
35891;SDS011;21993;42.672;23.296;2023-05-29T10:20:22;6.00;;;3.50;;
35891;SDS011;21993;42.672;23.296;2023-05-29T10:22:50;3.80;;;2.90;;
35891;SDS011;21993;42.672;23.296;2023-05-29T10:25:18;5.13;;;3.60;;
35891;SDS011;21993;42.672;23.296;2023-05-29T10:27:45;4.13;;;3.03;;
35891;SDS011;21993;42.672;23.296;2023-05-29T10:30:14;5.13;;;3.70;;
35891;SDS011;21993;42.672;23.296;2023-05-29T10:33:20;4.97;;;3.00;;
35891;SDS011;21993;42.672;23.296;2023-05-29T10:38:26;5.23;;;3.87;;
35891;SDS011;21993;42.672;23.296;2023-05-29T10:40:51;4.40;;;3.70;;
35891;SDS011;21993;42.672;23.296;2023-05-29T10:43:30;7.27;;;3.53;;
35891;SDS011;21993;42.672;23.296;2023-05-29T10:46:02;3.73;;;3.40;;
35891;SDS011;21993;42.672;23.296;2023-05-29T10:48:37;4.27;;;3.20;;
35891;SDS011;21993;42.672;23.296;2023-05-29T10:51:06;3.63;;;3.17;;
35891;SDS011;21993;42.672;23.296;2023-05-29T10:53:35;5.73;;;3.67;;
35891;SDS011;21993;42.672;23.296;2023-05-29T10:56:07;4.40;;;3.27;;
35891;SDS011;21993;42.672;23.296;2023-05-29T10:58:36;5.43;;;3.53;;
35891;SDS011;21993;42.672;23.296;2023-05-29T11:01:02;5.00;;;3.50;;
35891;SDS011;21993;42.672;23.296;2023-05-29T11:03:31;4.90;;;3.43;;
35891;SDS011;21993;42.672;23.296;2023-05-29T11:05:58;3.27;;;2.90;;
35891;SDS011;21993;42.672;23.296;2023-05-29T11:08:35;7.27;;;3.90;;
35891;SDS011;21993;42.672;23.296;2023-05-29T11:11:14;7.30;;;3.60;;
35891;SDS011;21993;42.672;23.296;2023-05-29T11:13:55;4.90;;;4.00;;
35891;SDS011;21993;42.672;23.296;2023-05-29T11:18:56;5.57;;;3.33;;
35891;SDS011;21993;42.672;23.296;2023-05-29T11:23:57;5.83;;;3.70;;
35891;SDS011;21993;42.672;23.296;2023-05-29T11:26:26;7.07;;;4.00;;
35891;SDS011;21993;42.672;23.296;2023-05-29T11:28:52;5.17;;;4.13;;
35891;SDS011;21993;42.672;23.296;2023-05-29T11:31:17;10.20;;;4.07;;
35891;SDS011;21993;42.672;23.296;2023-05-29T11:33:49;5.93;;;4.20;;
35891;SDS011;21993;42.672;23.296;2023-05-29T11:36:16;8.40;;;4.20;;
35891;SDS011;21993;42.672;23.296;2023-05-29T11:38:43;8.73;;;3.93;;
35891;SDS011;21993;42.672;23.296;2023-05-29T11:41:09;5.00;;;4.03;;
35891;SDS011;21993;42.672;23.296;2023-05-29T11:43:34;5.40;;;3.70;;
35891;SDS011;21993;42.672;23.296;2023-05-29T11:46:00;6.30;;;3.67;;
35891;SDS011;21993;42.672;23.296;2023-05-29T11:48:26;5.47;;;3.90;;
35891;SDS011;21993;42.672;23.296;2023-05-29T11:50:52;4.27;;;3.70;;
35891;SDS011;21993;42.672;23.296;2023-05-29T11:53:18;6.00;;;4.20;;
35891;SDS011;21993;42.672;23.296;2023-05-29T11:55:43;4.93;;;4.27;;
35891;SDS011;21993;42.672;23.296;2023-05-29T11:58:09;6.47;;;3.60;;
35891;SDS011;21993;42.672;23.296;2023-05-29T12:00:35;5.80;;;3.80;;
35891;SDS011;21993;42.672;23.296;2023-05-29T12:03:02;6.40;;;3.70;;
35891;SDS011;21993;42.672;23.296;2023-05-29T12:05:30;5.33;;;3.63;;
35891;SDS011;21993;42.672;23.296;2023-05-29T12:07:58;5.80;;;3.87;;
35891;SDS011;21993;42.672;23.296;2023-05-29T12:10:27;6.03;;;3.93;;
35891;SDS011;21993;42.672;23.296;2023-05-29T12:12:54;5.43;;;3.97;;
35891;SDS011;21993;42.672;23.296;2023-05-29T12:15:21;4.43;;;4.03;;
35891;SDS011;21993;42.672;23.296;2023-05-29T12:17:47;4.47;;;3.77;;
35891;SDS011;21993;42.672;23.296;2023-05-29T12:20:14;9.70;;;4.23;;
35891;SDS011;21993;42.672;23.296;2023-05-29T12:22:42;6.00;;;3.93;;
35891;SDS011;21993;42.672;23.296;2023-05-29T12:25:12;4.97;;;3.43;;
35891;SDS011;21993;42.672;23.296;2023-05-29T12:27:40;6.77;;;3.40;;
35891;SDS011;21993;42.672;23.296;2023-05-29T12:30:12;7.13;;;3.50;;
35891;SDS011;21993;42.672;23.296;2023-05-29T12:32:43;4.50;;;3.83;;
35891;SDS011;21993;42.672;23.296;2023-05-29T12:37:47;3.97;;;3.33;;
35891;SDS011;21993;42.672;23.296;2023-05-29T12:40:16;5.13;;;3.67;;
35891;SDS011;21993;42.672;23.296;2023-05-29T12:42:43;5.90;;;4.83;;
35891;SDS011;21993;42.672;23.296;2023-05-29T12:45:09;7.97;;;4.80;;
35891;SDS011;21993;42.672;23.296;2023-05-29T12:47:36;6.00;;;4.47;;
35891;SDS011;21993;42.672;23.296;2023-05-29T12:50:18;9.70;;;4.53;;
35891;SDS011;21993;42.672;23.296;2023-05-29T12:55:29;7.40;;;3.90;;
35891;SDS011;21993;42.672;23.296;2023-05-29T12:57:58;5.00;;;3.70;;
35891;SDS011;21993;42.672;23.296;2023-05-29T13:00:24;5.33;;;3.70;;
35891;SDS011;21993;42.672;23.296;2023-05-29T13:02:49;6.90;;;4.20;;
35891;SDS011;21993;42.672;23.296;2023-05-29T13:05:15;4.63;;;4.23;;
35891;SDS011;21993;42.672;23.296;2023-05-29T13:07:43;5.33;;;4.03;;
35891;SDS011;21993;42.672;23.296;2023-05-29T13:10:10;6.17;;;3.70;;
35891;SDS011;21993;42.672;23.296;2023-05-29T13:12:35;12.33;;;4.70;;
35891;SDS011;21993;42.672;23.296;2023-05-29T13:15:01;17.77;;;6.57;;
35891;SDS011;21993;42.672;23.296;2023-05-29T13:17:26;10.03;;;3.97;;
35891;SDS011;21993;42.672;23.296;2023-05-29T13:19:52;5.43;;;4.10;;
35891;SDS011;21993;42.672;23.296;2023-05-29T13:22:17;5.97;;;4.77;;
35891;SDS011;21993;42.672;23.296;2023-05-29T13:24:42;4.77;;;3.93;;
35891;SDS011;21993;42.672;23.296;2023-05-29T13:27:08;6.23;;;3.97;;
35891;SDS011;21993;42.672;23.296;2023-05-29T13:29:33;4.33;;;3.93;;
35891;SDS011;21993;42.672;23.296;2023-05-29T13:32:00;6.30;;;4.30;;
35891;SDS011;21993;42.672;23.296;2023-05-29T13:34:25;6.27;;;4.47;;
35891;SDS011;21993;42.672;23.296;2023-05-29T13:36:56;4.53;;;4.10;;
35891;SDS011;21993;42.672;23.296;2023-05-29T13:39:21;7.10;;;5.03;;
35891;SDS011;21993;42.672;23.296;2023-05-29T13:41:46;7.13;;;5.90;;
35891;SDS011;21993;42.672;23.296;2023-05-29T13:44:12;8.53;;;5.47;;
35891;SDS011;21993;42.672;23.296;2023-05-29T13:46:38;7.60;;;4.77;;
35891;SDS011;21993;42.672;23.296;2023-05-29T13:49:03;7.63;;;4.90;;
35891;SDS011;21993;42.672;23.296;2023-05-29T13:51:28;5.50;;;4.20;;
35891;SDS011;21993;42.672;23.296;2023-05-29T13:53:54;5.80;;;4.90;;
35891;SDS011;21993;42.672;23.296;2023-05-29T13:56:19;5.93;;;4.93;;
35891;SDS011;21993;42.672;23.296;2023-05-29T13:58:45;9.57;;;5.13;;
35891;SDS011;21993;42.672;23.296;2023-05-29T14:01:10;7.37;;;5.27;;
35891;SDS011;21993;42.672;23.296;2023-05-29T14:03:36;7.93;;;5.23;;
35891;SDS011;21993;42.672;23.296;2023-05-29T14:06:01;10.97;;;5.43;;
35891;SDS011;21993;42.672;23.296;2023-05-29T14:08:30;7.57;;;5.10;;
35891;SDS011;21993;42.672;23.296;2023-05-29T14:10:55;5.60;;;5.00;;
35891;SDS011;21993;42.672;23.296;2023-05-29T14:13:20;7.07;;;5.00;;
35891;SDS011;21993;42.672;23.296;2023-05-29T14:15:46;5.93;;;3.57;;
35891;SDS011;21993;42.672;23.296;2023-05-29T14:18:13;3.73;;;2.63;;
35891;SDS011;21993;42.672;23.296;2023-05-29T14:20:39;5.03;;;2.87;;
35891;SDS011;21993;42.672;23.296;2023-05-29T14:23:04;3.63;;;2.53;;
35891;SDS011;21993;42.672;23.296;2023-05-29T14:25:30;2.57;;;2.23;;
35891;SDS011;21993;42.672;23.296;2023-05-29T14:27:55;4.33;;;2.47;;
35891;SDS011;21993;42.672;23.296;2023-05-29T14:30:21;3.50;;;2.60;;
35891;SDS011;21993;42.672;23.296;2023-05-29T14:32:46;2.67;;;2.30;;
35891;SDS011;21993;42.672;23.296;2023-05-29T14:35:12;2.73;;;2.10;;
35891;SDS011;21993;42.672;23.296;2023-05-29T14:37:37;3.03;;;2.50;;
35891;SDS011;21993;42.672;23.296;2023-05-29T14:40:03;4.77;;;2.73;;
35891;SDS011;21993;42.672;23.296;2023-05-29T14:42:28;2.70;;;2.33;;
35891;SDS011;21993;42.672;23.296;2023-05-29T14:44:54;3.07;;;2.40;;
35891;SDS011;21993;42.672;23.296;2023-05-29T14:47:19;3.70;;;2.13;;
35891;SDS011;21993;42.672;23.296;2023-05-29T14:49:45;2.80;;;2.53;;
35891;SDS011;21993;42.672;23.296;2023-05-29T14:52:10;3.47;;;2.40;;
35891;SDS011;21993;42.672;23.296;2023-05-29T14:54:35;2.50;;;2.30;;
35891;SDS011;21993;42.672;23.296;2023-05-29T14:57:01;3.13;;;2.73;;
35891;SDS011;21993;42.672;23.296;2023-05-29T14:59:27;3.77;;;2.47;;